createdAt,value
2019-02-07T00:00:53.145Z,450.20
2019-02-07T00:03:20.181Z,486.03
2019-02-07T00:05:47.236Z,444.63
2019-02-07T00:08:14.251Z,458.43
2019-02-07T00:10:41.748Z,533.77
2019-02-07T00:13:08.603Z,477.60
2019-02-07T00:15:36.683Z,495.90
2019-02-07T00:18:03.897Z,511.93
2019-02-07T00:20:30.970Z,495.87
2019-02-07T00:22:57.994Z,443.97
2019-02-07T00:25:24.867Z,468.73
2019-02-07T00:27:52.197Z,377.63
2019-02-07T00:30:20.254Z,417.27
2019-02-07T00:32:47.398Z,413.40
2019-02-07T00:35:14.500Z,442.90
2019-02-07T00:37:41.518Z,452.77
2019-02-07T00:40:10.995Z,415.40
2019-02-07T00:42:38.082Z,431.63
2019-02-07T00:45:07.075Z,378.57
2019-02-07T00:47:34.296Z,386.50
2019-02-07T00:50:04.975Z,369.73
2019-02-07T00:52:32.018Z,359.43
2019-02-07T00:54:58.828Z,374.63
2019-02-07T00:57:25.899Z,323.53
2019-02-07T00:59:53.225Z,301.53
2019-02-07T01:02:20.176Z,388.43
2019-02-07T01:04:47.351Z,417.00
2019-02-07T01:07:14.207Z,479.13
2019-02-07T01:09:41.006Z,477.47
2019-02-07T01:12:07.980Z,347.97
2019-02-07T01:14:34.804Z,359.90
2019-02-07T01:17:01.787Z,370.57
2019-02-07T01:19:29.254Z,405.40
2019-02-07T01:21:56.591Z,372.87
2019-02-07T01:24:23.523Z,386.07
2019-02-07T01:26:50.461Z,397.87
2019-02-07T01:29:17.881Z,421.10
2019-02-07T01:31:44.808Z,445.00
2019-02-07T01:34:11.762Z,414.70
2019-02-07T01:36:39.292Z,418.23
2019-02-07T01:39:08.448Z,410.40
2019-02-07T01:41:35.551Z,445.67
2019-02-07T01:44:02.762Z,392.80
2019-02-07T01:46:29.765Z,496.67
2019-02-07T01:48:56.727Z,409.70
2019-02-07T01:51:23.662Z,368.97
2019-02-07T01:53:50.803Z,306.73
2019-02-07T01:56:17.849Z,392.40
2019-02-07T01:58:45.083Z,299.40
2019-02-07T02:01:12.490Z,230.90
2019-02-07T02:03:39.491Z,292.90
2019-02-07T02:06:06.534Z,254.33
2019-02-07T02:08:33.476Z,264.27
2019-02-07T02:11:00.829Z,313.80
2019-02-07T02:13:28.272Z,277.43
2019-02-07T02:15:55.237Z,178.90
2019-02-07T02:18:22.546Z,175.90
2019-02-07T02:20:49.422Z,196.10
2019-02-07T02:23:16.350Z,200.47
2019-02-07T02:25:43.313Z,258.97
2019-02-07T02:28:10.368Z,222.90
2019-02-07T02:30:37.425Z,242.67
2019-02-07T02:33:04.594Z,220.00
2019-02-07T02:35:31.538Z,223.03
2019-02-07T02:37:58.665Z,219.60
2019-02-07T02:40:25.969Z,195.50
2019-02-07T02:42:53.127Z,246.80
2019-02-07T02:45:20.584Z,246.23
2019-02-07T02:47:47.752Z,198.53
2019-02-07T02:50:16.030Z,179.20
2019-02-07T02:52:43.302Z,192.53
2019-02-07T02:55:11.821Z,254.10
2019-02-07T02:57:38.950Z,206.03
2019-02-07T03:00:14.193Z,205.63
2019-02-07T03:02:48.377Z,220.97
2019-02-07T03:05:35.174Z,192.83
2019-02-07T03:08:22.614Z,191.27
2019-02-07T03:11:12.274Z,161.50
2019-02-07T03:13:59.795Z,175.07
2019-02-07T03:16:38.127Z,171.33
2019-02-07T03:19:26.346Z,183.07
2019-02-07T03:21:55.991Z,193.40
2019-02-07T03:24:42.769Z,179.80
2019-02-07T03:27:38.975Z,214.40
2019-02-07T03:30:29.458Z,193.83
2019-02-07T03:33:22.118Z,128.30
2019-02-07T03:35:57.530Z,177.80
2019-02-07T03:38:42.454Z,162.70
2019-02-07T03:41:29.052Z,154.27
2019-02-07T03:44:06.351Z,161.43
2019-02-07T03:47:00.268Z,169.00
2019-02-07T03:49:36.768Z,204.77
2019-02-07T03:52:26.495Z,176.20
2019-02-07T03:55:28.061Z,225.83
2019-02-07T03:58:17.671Z,212.33
2019-02-07T04:01:07.399Z,279.40
2019-02-07T04:04:01.149Z,308.83
2019-02-07T04:06:43.378Z,322.53
2019-02-07T04:09:38.127Z,340.27
2019-02-07T04:12:23.258Z,371.80
2019-02-07T04:15:09.841Z,365.67
2019-02-07T04:17:56.675Z,353.20
2019-02-07T04:20:43.388Z,367.47
2019-02-07T04:23:29.262Z,373.53
2019-02-07T04:26:10.758Z,394.57
2019-02-07T04:28:55.045Z,408.67
2019-02-07T04:31:30.571Z,406.50
2019-02-07T04:34:16.321Z,379.50
2019-02-07T04:37:01.611Z,423.43
2019-02-07T04:39:44.771Z,408.07
2019-02-07T04:42:30.273Z,445.13
2019-02-07T04:45:26.627Z,465.00
2019-02-07T04:48:11.872Z,378.17
2019-02-07T04:50:49.625Z,382.40
2019-02-07T04:53:34.661Z,411.90
2019-02-07T04:56:20.034Z,432.27
2019-02-07T04:59:06.995Z,466.73
2019-02-07T05:01:56.542Z,452.17
2019-02-07T05:04:38.693Z,492.50
2019-02-07T05:07:22.578Z,512.80
2019-02-07T05:10:17.681Z,462.23
2019-02-07T05:13:13.293Z,523.83
2019-02-07T05:15:56.251Z,483.73
2019-02-07T05:18:48.599Z,456.47
2019-02-07T05:21:41.319Z,497.40
2019-02-07T05:24:36.882Z,527.23
2019-02-07T05:27:12.774Z,495.20
2019-02-07T05:29:46.511Z,514.70
2019-02-07T05:32:51.536Z,522.33
2019-02-07T05:35:30.782Z,472.13
2019-02-07T05:38:26.526Z,512.77
2019-02-07T05:41:12.080Z,463.73
2019-02-07T05:44:07.402Z,408.77
2019-02-07T05:46:52.659Z,503.93
2019-02-07T05:49:41.538Z,510.83
2019-02-07T05:52:28.381Z,562.77
2019-02-07T05:55:24.360Z,542.43
2019-02-07T05:58:17.671Z,560.67
2019-02-07T06:01:16.232Z,544.53
2019-02-07T06:04:01.659Z,576.10
2019-02-07T06:06:35.352Z,553.80
2019-02-07T06:09:10.036Z,503.33
2019-02-07T06:11:55.420Z,553.37
2019-02-07T06:14:42.253Z,536.17
2019-02-07T06:17:20.093Z,521.30
2019-02-07T06:20:25.417Z,552.50
2019-02-07T06:23:07.167Z,443.70
2019-02-07T06:25:47.363Z,417.47
2019-02-07T06:28:27.891Z,411.53
2019-02-07T06:31:26.846Z,394.87
2019-02-07T06:34:07.681Z,417.20
2019-02-07T06:36:53.032Z,307.67
2019-02-07T06:39:42.418Z,305.47
2019-02-07T06:42:25.336Z,325.37
2019-02-07T06:45:06.307Z,303.70
2019-02-07T06:48:09.470Z,252.57
2019-02-07T06:50:54.665Z,290.70
2019-02-07T06:53:40.112Z,266.30
2019-02-07T06:56:26.718Z,229.23
2019-02-07T06:59:25.304Z,231.03
2019-02-07T07:02:10.571Z,245.67
2019-02-07T07:05:00.525Z,145.63
2019-02-07T07:07:46.370Z,131.60
2019-02-07T07:10:33.174Z,112.50
2019-02-07T07:13:09.753Z,114.17
2019-02-07T07:16:02.165Z,104.03
2019-02-07T07:19:04.038Z,116.83
2019-02-07T07:21:56.679Z,97.87
2019-02-07T07:24:43.273Z,112.50
2019-02-07T07:27:33.225Z,115.10
2019-02-07T07:30:18.649Z,106.13
2019-02-07T07:33:10.978Z,95.80
2019-02-07T07:35:50.274Z,96.80
2019-02-07T07:38:37.791Z,69.43
2019-02-07T07:41:27.355Z,68.80
2019-02-07T07:44:12.670Z,69.00
2019-02-07T07:46:52.786Z,75.60
2019-02-07T07:49:31.752Z,76.00
2019-02-07T07:52:30.193Z,67.10
2019-02-07T07:55:15.638Z,70.93
2019-02-07T07:57:54.773Z,82.80
2019-02-07T08:00:40.226Z,68.13
2019-02-07T08:03:41.779Z,87.03
2019-02-07T08:06:20.760Z,70.67
2019-02-07T08:09:09.364Z,55.60
2019-02-07T08:12:08.207Z,58.10
2019-02-07T08:14:57.902Z,57.43
2019-02-07T08:17:50.482Z,51.40
2019-02-07T08:20:31.206Z,63.33
2019-02-07T08:23:15.599Z,60.17
2019-02-07T08:26:20.564Z,53.10
2019-02-07T08:28:55.856Z,63.60
2019-02-07T08:31:32.302Z,56.43
2019-02-07T08:34:17.682Z,53.83
2019-02-07T08:37:02.935Z,63.70
2019-02-07T08:40:07.622Z,62.03
2019-02-07T08:42:57.570Z,56.53
2019-02-07T08:45:42.914Z,61.87
2019-02-07T08:48:22.463Z,81.17
2019-02-07T08:51:14.881Z,84.50
2019-02-07T08:54:01.449Z,90.03
2019-02-07T08:56:41.240Z,92.57
2019-02-07T08:59:30.862Z,109.97
2019-02-07T09:02:05.433Z,120.07
2019-02-07T09:05:01.082Z,129.67
2019-02-07T09:07:46.690Z,119.03
2019-02-07T09:10:34.358Z,124.23
2019-02-07T09:13:19.596Z,135.77
2019-02-07T09:16:13.036Z,126.80
2019-02-07T09:19:07.431Z,136.60
2019-02-07T09:21:44.049Z,140.10
2019-02-07T09:24:39.568Z,137.43
2019-02-07T09:27:33.053Z,130.67
2019-02-07T09:30:19.917Z,160.13
2019-02-07T09:33:06.653Z,165.47
2019-02-07T09:36:04.895Z,168.13
2019-02-07T09:38:45.172Z,169.23
2019-02-07T09:41:34.765Z,186.53
2019-02-07T09:44:29.203Z,176.77
2019-02-07T09:47:07.036Z,177.33
2019-02-07T09:49:53.696Z,167.57
2019-02-07T09:52:38.954Z,174.67
2019-02-07T09:55:23.932Z,175.67
2019-02-07T09:58:10.986Z,156.50
2019-02-07T10:00:57.955Z,171.80
2019-02-07T10:03:34.673Z,168.23
2019-02-07T10:06:24.146Z,152.90
2019-02-07T10:08:59.589Z,159.80
2019-02-07T10:11:44.626Z,154.30
2019-02-07T10:14:22.233Z,142.40
2019-02-07T10:17:27.270Z,144.50
2019-02-07T10:20:17.221Z,128.03
2019-02-07T10:23:12.642Z,134.27
2019-02-07T10:25:53.401Z,120.90
2019-02-07T10:28:46.043Z,118.37
2019-02-07T10:31:48.042Z,119.47
2019-02-07T10:34:40.594Z,123.73
2019-02-07T10:37:15.945Z,112.23
2019-02-07T10:40:04.063Z,104.30
2019-02-07T10:42:49.330Z,124.10
2019-02-07T10:45:30.406Z,104.10
2019-02-07T10:48:10.799Z,101.20
2019-02-07T10:50:56.184Z,100.13
2019-02-07T10:53:39.389Z,85.40
2019-02-07T10:56:38.146Z,91.03
2019-02-07T10:59:23.619Z,90.13
2019-02-07T11:02:08.767Z,80.27
2019-02-07T11:04:54.136Z,60.43
2019-02-07T11:07:39.506Z,67.40
2019-02-07T11:10:22.465Z,61.87
2019-02-07T11:13:07.622Z,62.10
2019-02-07T11:15:54.142Z,58.33
2019-02-07T11:18:39.272Z,58.33
2019-02-07T11:21:32.114Z,57.10
2019-02-07T11:24:17.503Z,55.50
2019-02-07T11:27:03.007Z,45.20
2019-02-07T11:29:37.893Z,47.33
2019-02-07T11:32:36.929Z,46.57
2019-02-07T11:35:15.057Z,45.73
2019-02-07T11:38:07.535Z,46.37
2019-02-07T11:41:06.404Z,45.70
2019-02-07T11:44:04.902Z,41.23
2019-02-07T11:46:51.962Z,38.50
2019-02-07T11:49:38.673Z,44.60
2019-02-07T11:52:31.065Z,35.67
2019-02-07T11:55:26.438Z,36.27
2019-02-07T11:58:23.721Z,36.60
2019-02-07T12:01:41.935Z,35.20
2019-02-07T12:04:28.919Z,39.53
2019-02-07T12:07:14.181Z,34.60
2019-02-07T12:09:50.794Z,36.87
2019-02-07T12:12:35.496Z,33.97
2019-02-07T12:15:21.908Z,35.50
2019-02-07T12:18:17.574Z,35.90
2019-02-07T12:21:18.662Z,30.20
2019-02-07T12:24:16.998Z,36.70
2019-02-07T12:26:56.103Z,31.97
2019-02-07T12:29:45.493Z,39.73
2019-02-07T12:32:32.070Z,34.53
2019-02-07T12:35:21.512Z,35.80
2019-02-07T12:38:00.122Z,36.73
2019-02-07T12:40:55.957Z,34.70
2019-02-07T12:43:30.767Z,33.10
2019-02-07T12:46:14.156Z,41.67
2019-02-07T12:49:12.785Z,40.70
2019-02-07T12:51:55.094Z,32.20
2019-02-07T12:54:56.716Z,36.90
2019-02-07T12:57:42.202Z,39.23
2019-02-07T13:00:18.149Z,33.20
2019-02-07T13:03:22.996Z,39.20
2019-02-07T13:06:08.438Z,37.77
2019-02-07T13:08:53.835Z,40.47
2019-02-07T13:11:34.462Z,39.83
2019-02-07T13:14:08.030Z,42.33
2019-02-07T13:17:06.982Z,47.23
2019-02-07T13:19:55.629Z,42.67
2019-02-07T13:22:41.328Z,48.63
2019-02-07T13:25:27.854Z,40.87
2019-02-07T13:28:13.537Z,54.57
2019-02-07T13:30:54.983Z,49.27
2019-02-07T13:33:40.266Z,43.67
2019-02-07T13:36:27.025Z,44.33
2019-02-07T13:39:28.622Z,47.23
2019-02-07T13:42:26.524Z,44.63
2019-02-07T13:45:13.938Z,49.60
2019-02-07T13:48:15.758Z,44.47
2019-02-07T13:51:08.269Z,41.77
2019-02-07T13:54:01.208Z,44.77
2019-02-07T13:56:44.165Z,50.37
2019-02-07T13:59:27.426Z,50.53
2019-02-07T14:02:32.211Z,52.00
2019-02-07T14:05:10.437Z,49.23
2019-02-07T14:07:55.575Z,48.90
2019-02-07T14:10:44.882Z,46.40
2019-02-07T14:13:32.154Z,45.40
2019-02-07T14:16:37.013Z,42.50
2019-02-07T14:19:26.550Z,41.87
2019-02-07T14:22:04.681Z,41.10
2019-02-07T14:24:49.786Z,40.90
2019-02-07T14:27:35.061Z,39.93
2019-02-07T14:30:11.140Z,35.80
2019-02-07T14:32:45.806Z,38.83
2019-02-07T14:35:31.883Z,35.47
2019-02-07T14:38:27.326Z,35.23
2019-02-07T14:41:12.665Z,37.73
2019-02-07T14:44:04.533Z,36.37
2019-02-07T14:46:49.560Z,32.83
2019-02-07T14:49:16.761Z,35.83
2019-02-07T14:51:43.847Z,37.70
2019-02-07T14:54:11.255Z,38.60
2019-02-07T14:56:38.214Z,42.03
2019-02-07T14:59:06.067Z,41.70
2019-02-07T15:01:32.989Z,37.97
2019-02-07T15:04:00.135Z,40.33
2019-02-07T15:06:27.250Z,42.60
2019-02-07T15:08:54.164Z,36.63
2019-02-07T15:11:21.419Z,38.60
2019-02-07T15:13:48.447Z,37.47
2019-02-07T15:16:15.485Z,43.00
2019-02-07T15:18:42.554Z,36.87
2019-02-07T15:21:09.498Z,43.83
2019-02-07T15:23:36.446Z,45.23
2019-02-07T15:26:03.898Z,43.43
2019-02-07T15:28:30.928Z,47.93
2019-02-07T15:30:58.092Z,44.43
2019-02-07T15:33:25.158Z,42.23
2019-02-07T15:35:52.319Z,49.33
2019-02-07T15:38:19.376Z,50.30
2019-02-07T15:40:46.847Z,45.30
2019-02-07T15:43:14.773Z,46.10
2019-02-07T15:45:41.906Z,45.63
2019-02-07T15:48:09.164Z,51.47
2019-02-07T15:50:38.323Z,49.40
2019-02-07T15:53:06.127Z,60.90
2019-02-07T15:55:33.077Z,60.87
2019-02-07T15:58:00.103Z,59.20
2019-02-07T16:00:46.510Z,54.33
2019-02-07T16:03:25.306Z,58.10
2019-02-07T16:05:52.265Z,65.53
2019-02-07T16:08:19.385Z,66.50
2019-02-07T16:10:46.538Z,68.53
2019-02-07T16:13:13.495Z,64.83
2019-02-07T16:15:40.609Z,68.73
2019-02-07T16:18:08.133Z,57.50
2019-02-07T16:20:35.167Z,71.13
2019-02-07T16:23:02.199Z,70.00
2019-02-07T16:25:29.334Z,65.77
2019-02-07T16:27:56.536Z,64.37
2019-02-07T16:30:24.279Z,63.07
2019-02-07T16:32:51.226Z,66.40
2019-02-07T16:35:19.309Z,63.37
2019-02-07T16:37:46.676Z,64.33
2019-02-07T16:40:14.438Z,58.97
2019-02-07T16:42:41.866Z,55.77
2019-02-07T16:45:11.960Z,54.57
2019-02-07T16:47:38.988Z,53.73
2019-02-07T16:50:08.821Z,61.07
2019-02-07T16:52:36.124Z,54.83
2019-02-07T16:55:06.761Z,57.00
2019-02-07T16:57:33.943Z,51.20
2019-02-07T17:00:00.826Z,50.73
2019-02-07T17:02:27.811Z,50.97
2019-02-07T17:04:54.763Z,48.27
2019-02-07T17:07:21.798Z,61.97
2019-02-07T17:09:49.213Z,57.00
2019-02-07T17:12:16.358Z,55.20
2019-02-07T17:14:43.462Z,57.57
2019-02-07T17:17:10.492Z,54.63
2019-02-07T17:19:37.746Z,53.97
2019-02-07T17:22:04.843Z,56.40
2019-02-07T17:24:32.021Z,53.37
2019-02-07T17:26:59.651Z,52.90
2019-02-07T17:29:26.658Z,49.73
2019-02-07T17:31:53.596Z,58.77
2019-02-07T17:34:20.554Z,59.97
2019-02-07T17:36:47.670Z,55.80
2019-02-07T17:39:14.590Z,60.93
2019-02-07T17:41:41.550Z,60.70
2019-02-07T17:44:08.602Z,65.67
2019-02-07T17:46:35.851Z,65.40
2019-02-07T17:49:03.222Z,65.57
2019-02-07T17:51:30.262Z,70.23
2019-02-07T17:53:57.199Z,65.27
2019-02-07T17:56:24.267Z,74.43
2019-02-07T17:58:51.219Z,74.53
2019-02-07T18:01:18.375Z,65.07
2019-02-07T18:03:45.390Z,83.37
2019-02-07T18:06:12.837Z,76.97
2019-02-07T18:08:39.651Z,84.10
2019-02-07T18:11:06.895Z,82.50
2019-02-07T18:13:34.245Z,89.47
2019-02-07T18:16:02.081Z,81.67
2019-02-07T18:18:29.129Z,79.03
2019-02-07T18:20:56.174Z,91.93
2019-02-07T18:23:23.206Z,87.43
2019-02-07T18:25:50.235Z,103.37
2019-02-07T18:28:17.252Z,90.87
2019-02-07T18:30:45.225Z,91.07
2019-02-07T18:33:12.121Z,103.77
2019-02-07T18:35:39.356Z,101.63
2019-02-07T18:38:06.473Z,115.93
2019-02-07T18:40:33.727Z,109.20
2019-02-07T18:43:01.238Z,117.37
2019-02-07T18:45:28.293Z,109.07
2019-02-07T18:47:55.265Z,126.60
2019-02-07T18:50:25.602Z,114.40
2019-02-07T18:52:52.927Z,119.10
2019-02-07T18:55:20.001Z,109.70
2019-02-07T18:57:47.033Z,118.37
2019-02-07T19:00:17.794Z,105.77
2019-02-07T19:02:44.779Z,123.73
2019-02-07T19:05:14.182Z,108.53
2019-02-07T19:07:41.128Z,110.50
2019-02-07T19:10:09.247Z,102.17
2019-02-07T19:12:36.174Z,85.47
2019-02-07T19:15:07.590Z,86.87
2019-02-07T19:17:34.887Z,90.23
2019-02-07T19:20:01.727Z,87.27
2019-02-07T19:22:28.674Z,98.50
2019-02-07T19:24:55.749Z,91.63
2019-02-07T19:27:23.235Z,94.23
2019-02-07T19:29:50.269Z,93.70
2019-02-07T19:32:17.127Z,76.60
2019-02-07T19:34:44.128Z,87.63
2019-02-07T19:37:11.357Z,81.30
2019-02-07T19:39:38.316Z,81.17
2019-02-07T19:42:05.275Z,84.37
2019-02-07T19:44:32.182Z,76.60
2019-02-07T19:46:59.036Z,92.80
2019-02-07T19:49:25.889Z,79.00
2019-02-07T19:51:52.902Z,89.37
2019-02-07T19:54:19.961Z,88.53
2019-02-07T19:56:47.340Z,80.77
2019-02-07T19:59:14.258Z,79.27
2019-02-07T20:01:41.238Z,72.47
2019-02-07T20:04:08.255Z,68.60
2019-02-07T20:06:35.289Z,77.57
2019-02-07T20:09:04.202Z,82.50
2019-02-07T20:11:31.014Z,64.53
2019-02-07T20:13:58.358Z,68.87
2019-02-07T20:16:25.316Z,65.33
2019-02-07T20:18:52.352Z,55.80
2019-02-07T20:21:19.474Z,49.10
2019-02-07T20:23:46.632Z,56.47
2019-02-07T20:26:13.786Z,53.93
2019-02-07T20:28:40.935Z,51.40
2019-02-07T20:31:08.167Z,52.93
2019-02-07T20:33:35.270Z,51.00
2019-02-07T20:36:03.153Z,46.87
2019-02-07T20:38:30.215Z,45.00
2019-02-07T20:40:57.337Z,43.20
2019-02-07T20:43:24.353Z,45.80
2019-02-07T20:45:51.536Z,42.33
2019-02-07T20:48:18.475Z,42.87
2019-02-07T20:50:45.609Z,42.70
2019-02-07T20:53:14.402Z,46.47
2019-02-07T20:55:41.441Z,44.20
2019-02-07T20:58:08.485Z,42.60
2019-02-07T21:00:36.561Z,40.03
2019-02-07T21:03:04.454Z,39.53
2019-02-07T21:05:31.999Z,39.50
2019-02-07T21:08:01.427Z,42.07
2019-02-07T21:10:29.945Z,38.90
2019-02-07T21:12:57.103Z,36.73
2019-02-07T21:15:24.654Z,35.00
2019-02-07T21:17:54.373Z,38.73
2019-02-07T21:20:23.492Z,34.07
2019-02-07T21:22:51.494Z,37.13
2019-02-07T21:25:20.884Z,32.83
2019-02-07T21:27:47.919Z,28.97
2019-02-07T21:30:18.790Z,35.03
2019-02-07T21:32:46.239Z,34.43
2019-02-07T21:35:14.914Z,28.67
2019-02-07T21:37:42.060Z,29.87
2019-02-07T21:40:11.069Z,24.47
2019-02-07T21:42:39.470Z,28.07
2019-02-07T21:45:07.873Z,28.77
2019-02-07T21:47:34.885Z,33.03
2019-02-07T21:50:02.046Z,31.00
2019-02-07T21:52:29.494Z,27.57
2019-02-07T21:54:56.325Z,29.73
2019-02-07T21:57:23.149Z,29.83
2019-02-07T21:59:50.082Z,29.83
2019-02-07T22:02:16.939Z,33.43
2019-02-07T22:04:43.861Z,30.83
2019-02-07T22:07:10.801Z,27.07
2019-02-07T22:09:37.935Z,27.53
2019-02-07T22:12:04.940Z,29.73
2019-02-07T22:14:31.878Z,32.67
2019-02-07T22:16:58.802Z,29.63
2019-02-07T22:19:25.614Z,22.87
2019-02-07T22:21:52.646Z,26.30
2019-02-07T22:24:19.532Z,25.17
2019-02-07T22:26:46.480Z,24.97
2019-02-07T22:29:13.849Z,25.57
2019-02-07T22:31:40.781Z,25.47
2019-02-07T22:34:07.787Z,26.73
2019-02-07T22:36:34.733Z,24.23
2019-02-07T22:39:01.787Z,22.17
2019-02-07T22:41:28.797Z,25.47
2019-02-07T22:43:55.642Z,21.70
2019-02-07T22:46:22.574Z,24.37
2019-02-07T22:48:49.970Z,20.67
2019-02-07T22:51:16.825Z,17.50
2019-02-07T22:53:43.860Z,17.73
2019-02-07T22:56:10.652Z,15.50
2019-02-07T22:58:37.510Z,21.17
2019-02-07T23:01:32.109Z,21.83
2019-02-07T23:04:05.826Z,18.50
2019-02-07T23:06:32.826Z,21.13
2019-02-07T23:08:59.832Z,21.83
2019-02-07T23:11:27.078Z,15.47
2019-02-07T23:13:54.063Z,20.77
2019-02-07T23:16:21.125Z,18.73
2019-02-07T23:18:48.366Z,18.00
2019-02-07T23:21:15.199Z,15.50
2019-02-07T23:23:42.209Z,16.20
2019-02-07T23:26:09.161Z,16.50
2019-02-07T23:28:36.281Z,16.27
2019-02-07T23:31:05.110Z,13.20
2019-02-07T23:33:32.162Z,15.30
2019-02-07T23:35:59.580Z,11.17
2019-02-07T23:38:26.493Z,14.33
2019-02-07T23:40:53.530Z,11.57
2019-02-07T23:43:45.920Z,12.10
2019-02-07T23:46:09.297Z,12.13
2019-02-07T23:48:36.441Z,14.00
2019-02-07T23:51:04.469Z,13.40
2019-02-07T23:53:31.514Z,14.77
2019-02-07T23:55:58.446Z,9.33
2019-02-07T23:58:25.501Z,9.37
